Capon Springs, WV

07:12 EST le 04 décembre 2016 (GMT -0500)
river ridge | | Change Station

Alt. 1775 ft 39.13 °N, 78.59 °W | Updated 14 seconds ago

Clear
Ciel dégagé
30.6 ° F
Paraît 27 ° F
N
3.4
Vent Variable Vent de NE
Gusts 4.9 mph

Aujourd'hui
Haut(e) -- | Bas -- ° F
--% Risque de précip.
Hier
Haut(e) -- | Bas -- ° F
Precip. -- pouce
Pression 30.28 pouce
Visibilité 10.0 Miles terrestres
Nuages Ciel dégagé
Refroidissement éolien 27 ° F
Point de rosée 23 ° F
Humidité 74%
Précipitations 0.00 pouce
Profondeur de la couche neigeuse Non disponible.
7:17 AM 4:51 PM
Lune montante, 22% visible
METAR KOKV 041155Z AUTO 00000KT 10SM CLR 00/M03 A3028 RMK AO2
Pression 30.28 pouce
Visibilité 10.0 Miles terrestres
Nuages Ciel dégagé
Refroidissement éolien 27 ° F
Point de rosée 23 ° F
Humidité 74%
Précipitations 0.00 pouce
Profondeur de la couche neigeuse Non disponible.
7:17 AM 4:51 PM
Lune montante, 22% visible
METAR KOKV 041155Z AUTO 00000KT 10SM CLR 00/M03 A3028 RMK AO2

10-Day Weather Forecast

Almanac

Astronomie

Dec. 04, 2016 Lever Coucher
Temps réel
Crépuscule civil
Crépuscule nautique
Crépuscule astronomique
Lune
Durée de lumière visible
Longueur du jour
Tomorrow will be .
, % of the Moon is Illuminated

Extrêmes aujourd'hui

State Highs State Lows

Community

WunderPhotos

Upload Photos

1,955,591 Photos téléchargées !

WunderBlog® & News

Nearby

Qualité de l'air

  Qualité de l'air Indice de la qualité de l'air Polluant
Not available.

Épaisseur de neige

Station Depth Altitude

Activité sismique

Ville Distance Mag. Time & Date
Minimum magnitude displayed is 2.5.

Températures des eaux côtières

Lieu Température

Stations

Stations météo à proximité

Emplacement de la station Température Refroidissement éolien Point de rosée Humidité Vent Precip. Alt. Mise à jour Type
                   

Watches & Warnings

There are currently no watches in effect.